Time;durP1;ratioP1;P1;durP2;ratioP2;P2;SDS_P1;SDS_P2;PMS_P1;PMS_P2;Temp;Humidity;BMP_temperature;BMP_pressure;BME280_temperature;BME280_humidity;BME280_pressure;Samples;Min_cycle;Max_cycle;Signal;HPM_P1;HPM_P2
2021/04/29 00:00:16;;;;;;;14.75;9.23;;;14.70;88.00;;;;;;1695035;84;21301;-74
2021/04/29 00:02:47;;;;;;;16.15;9.73;;;14.60;88.70;;;;;;1695168;84;21168;-73
2021/04/29 00:05:19;;;;;;;14.07;8.65;;;14.50;89.90;;;;;;1695331;84;21148;-75
2021/04/29 00:07:47;;;;;;;12.98;8.60;;;14.50;90.20;;;;;;1695163;85;21148;-75
2021/04/29 00:10:20;;;;;;;13.98;8.38;;;14.40;89.00;;;;;;1695140;85;21739;-74
2021/04/29 00:12:48;;;;;;;14.23;9.35;;;14.40;89.00;;;;;;1695244;85;21348;-75
2021/04/29 00:15:17;;;;;;;14.18;9.00;;;14.40;89.50;;;;;;1695317;84;21178;-74
2021/04/29 00:17:45;;;;;;;13.55;8.75;;;14.40;88.40;;;;;;1695227;85;21317;-75
2021/04/29 00:20:21;;;;;;;12.85;8.75;;;14.40;87.30;;;;;;1692653;84;21613;-75
2021/04/29 00:22:50;;;;;;;15.72;8.98;;;14.40;87.20;;;;;;1690607;85;21609;-75
2021/04/29 00:25:17;;;;;;;14.15;8.30;;;14.40;87.60;;;;;;1690328;84;21196;-75
2021/04/29 00:27:45;;;;;;;13.40;8.10;;;14.40;87.30;;;;;;1690530;85;21593;-74
2021/04/29 00:30:14;;;;;;;13.75;8.30;;;14.40;87.10;;;;;;1690328;84;21163;-75
2021/04/29 00:32:41;;;;;;;11.03;7.58;;;14.40;87.20;;;;;;1690566;84;21173;-75
2021/04/29 00:35:11;;;;;;;14.43;8.08;;;14.40;87.10;;;;;;1690385;85;21186;-73
2021/04/29 00:37:39;;;;;;;11.78;7.62;;;14.40;86.80;;;;;;1690309;84;21195;-75
2021/04/29 00:40:09;;;;;;;12.10;7.67;;;14.40;88.50;;;;;;1690305;84;21139;-75
2021/04/29 00:42:42;;;;;;;12.47;7.97;;;14.20;90.00;;;;;;1690849;85;21143;-75
2021/04/29 00:45:13;;;;;;;11.48;6.62;;;14.10;90.60;;;;;;1690466;85;21199;-74
2021/04/29 00:47:41;;;;;;;9.53;6.55;;;14.10;92.20;;;;;;1690193;85;21155;-75
2021/04/29 00:50:12;;;;;;;14.58;7.05;;;14.10;92.60;;;;;;1690565;85;21605;-74
2021/04/29 00:52:40;;;;;;;12.55;7.20;;;14.10;93.20;;;;;;1690474;85;21261;-71
2021/04/29 00:55:09;;;;;;;14.98;6.78;;;14.00;92.90;;;;;;1690389;85;21199;-72
2021/04/29 00:57:37;;;;;;;10.15;6.37;;;14.00;93.40;;;;;;1690471;85;21214;-72
2021/04/29 01:00:10;;;;;;;12.30;6.95;;;14.00;93.60;;;;;;1690679;85;21208;-71
2021/04/29 01:02:49;;;;;;;9.50;5.92;;;14.00;94.00;;;;;;1690481;84;21542;-72
2021/04/29 01:05:28;;;;;;;12.37;6.78;;;13.90;93.90;;;;;;1690506;84;21167;-72
2021/04/29 01:08:10;;;;;;;12.05;6.92;;;13.90;94.10;;;;;;1689565;84;21183;-70
2021/04/29 01:10:49;;;;;;;11.20;7.12;;;13.90;94.60;;;;;;1690473;85;21128;-71
2021/04/29 01:13:25;;;;;;;10.15;6.65;;;13.80;94.60;;;;;;1689775;84;21179;-73
2021/04/29 01:15:53;;;;;;;11.40;7.10;;;13.80;96.00;;;;;;1690682;85;21183;-72
2021/04/29 01:18:25;;;;;;;11.30;7.20;;;13.70;96.40;;;;;;1690471;85;21194;-72
2021/04/29 01:21:06;;;;;;;19.02;11.55;;;13.80;96.50;;;;;;1702613;84;21194;-72
2021/04/29 01:23:57;;;;;;;15.45;9.63;;;13.80;95.40;;;;;;1708682;84;21203;-72
2021/04/29 01:26:40;;;;;;;12.15;8.30;;;13.80;96.40;;;;;;1708661;84;21119;-72
2021/04/29 01:29:12;;;;;;;14.38;8.20;;;13.80;98.10;;;;;;1708139;84;21620;-72
2021/04/29 01:31:45;;;;;;;12.75;8.80;;;13.80;97.10;;;;;;1708397;84;21182;-72
2021/04/29 01:34:17;;;;;;;12.98;8.63;;;13.80;97.50;;;;;;1708496;84;21179;-73
2021/04/29 01:36:48;;;;;;;13.93;8.93;;;13.80;98.40;;;;;;1708627;84;21162;-73
2021/04/29 01:39:17;;;;;;;18.60;8.80;;;13.70;98.70;;;;;;1708675;84;21276;-72
2021/04/29 01:41:49;;;;;;;12.90;8.93;;;13.70;98.70;;;;;;1708872;84;21601;-71
2021/04/29 01:44:21;;;;;;;12.47;8.45;;;13.70;98.70;;;;;;1708719;84;21194;-72
2021/04/29 01:46:50;;;;;;;14.58;9.15;;;13.60;99.90;;;;;;1708904;84;21170;-71
2021/04/29 01:49:21;;;;;;;15.32;9.78;;;13.50;99.10;;;;;;1708695;84;21155;-71
2021/04/29 01:51:51;;;;;;;13.72;9.10;;;13.50;99.90;;;;;;1708889;84;21624;-71
2021/04/29 01:54:23;;;;;;;17.32;10.15;;;13.40;99.90;;;;;;1708617;84;21231;-71
2021/04/29 01:56:51;;;;;;;18.45;10.30;;;13.30;99.90;;;;;;1708726;84;21172;-71
2021/04/29 01:59:22;;;;;;;12.78;8.68;;;13.20;99.90;;;;;;1708494;84;21151;-71
2021/04/29 02:01:50;;;;;;;16.17;8.68;;;13.20;99.90;;;;;;1708873;84;21312;-71
2021/04/29 02:04:18;;;;;;;14.25;8.70;;;13.10;99.90;;;;;;1708756;84;21187;-71
2021/04/29 02:06:47;;;;;;;17.90;9.28;;;13.20;99.90;;;;;;1708830;84;21139;-71
2021/04/29 02:09:15;;;;;;;14.03;8.65;;;13.20;99.90;;;;;;1708878;84;21588;-71
2021/04/29 02:12:01;;;;;;;13.05;8.80;;;13.20;99.90;;;;;;1708747;84;21158;-72
2021/04/29 02:14:38;;;;;;;14.65;8.68;;;13.30;99.90;;;;;;1708961;84;21178;-72
2021/04/29 02:17:28;;;;;;;15.08;8.68;;;13.30;99.90;;;;;;1709018;84;21565;-73
2021/04/29 02:19:58;;;;;;;19.40;9.53;;;13.30;99.90;;;;;;1708807;84;21182;-71
2021/04/29 02:22:28;;;;;;;13.65;8.95;;;13.30;99.90;;;;;;1708941;84;21178;-71
2021/04/29 02:24:58;;;;;;;13.10;8.85;;;13.30;99.90;;;;;;1708669;84;21169;-71
2021/04/29 02:27:27;;;;;;;12.33;8.58;;;13.30;99.90;;;;;;1708864;84;21194;-72
2021/04/29 02:29:55;;;;;;;14.45;9.70;;;13.30;99.90;;;;;;1708944;84;21185;-72
2021/04/29 02:32:23;;;;;;;16.23;9.45;;;13.30;99.90;;;;;;1708759;84;21198;-71
2021/04/29 02:34:52;;;;;;;13.15;8.88;;;13.30;99.90;;;;;;1708725;84;21731;-71
2021/04/29 02:37:21;;;;;;;13.25;8.58;;;13.40;99.90;;;;;;1708654;84;21182;-70
2021/04/29 02:39:49;;;;;;;14.28;9.15;;;13.40;99.90;;;;;;1708829;84;21179;-70
2021/04/29 02:42:16;;;;;;;14.00;8.60;;;13.30;99.90;;;;;;1708888;84;21170;-71
2021/04/29 02:44:44;;;;;;;13.20;8.70;;;13.20;99.90;;;;;;1708577;84;21424;-71
2021/04/29 02:47:15;;;;;;;15.78;9.03;;;13.20;99.90;;;;;;1708827;84;21606;-71
2021/04/29 02:49:43;;;;;;;15.80;9.43;;;13.20;99.90;;;;;;1708837;84;21191;-71
2021/04/29 02:52:11;;;;;;;12.73;8.70;;;13.20;99.90;;;;;;1708600;84;21631;-71
2021/04/29 02:54:40;;;;;;;13.88;8.90;;;13.10;99.90;;;;;;1708890;84;21565;-70
2021/04/29 02:57:08;;;;;;;13.25;9.40;;;13.20;99.90;;;;;;1708716;84;21616;-69
2021/04/29 02:59:40;;;;;;;14.50;8.90;;;13.20;99.90;;;;;;1708615;84;21181;-70
2021/04/29 03:02:09;;;;;;;15.03;9.30;;;13.20;99.90;;;;;;1708660;84;21159;-71
2021/04/29 03:04:38;;;;;;;14.53;9.03;;;13.10;99.90;;;;;;1708645;84;21151;-71
2021/04/29 03:07:06;;;;;;;15.28;8.90;;;13.10;99.90;;;;;;1708385;84;21165;-69
2021/04/29 03:09:33;;;;;;;15.53;9.10;;;13.00;99.90;;;;;;1697673;83;21142;-71
2021/04/29 03:12:01;;;;;;;12.95;9.13;;;12.90;99.90;;;;;;1705911;84;21575;-71
2021/04/29 03:14:30;;;;;;;12.58;8.45;;;12.80;99.90;;;;;;1707203;84;21193;-71
2021/04/29 03:16:58;;;;;;;13.45;8.43;;;12.70;99.90;;;;;;1707302;84;21177;-71
2021/04/29 03:19:27;;;;;;;12.73;8.45;;;12.70;99.90;;;;;;1707297;84;21177;-70
2021/04/29 03:21:55;;;;;;;13.80;8.05;;;12.70;99.90;;;;;;1692119;84;21190;-72
2021/04/29 03:24:22;;;;;;;16.30;9.65;;;12.70;99.90;;;;;;1689599;85;21185;-72
2021/04/29 03:26:52;;;;;;;13.75;9.03;;;12.60;99.90;;;;;;1686084;85;21170;-72
2021/04/29 03:29:19;;;;;;;14.87;8.50;;;12.70;99.90;;;;;;1689327;85;21205;-72
2021/04/29 03:31:47;;;;;;;12.33;8.65;;;12.70;99.90;;;;;;1689522;84;21735;-75
2021/04/29 03:34:15;;;;;;;15.53;9.13;;;12.60;99.90;;;;;;1689348;85;21154;-75
2021/04/29 03:36:43;;;;;;;14.28;8.78;;;12.70;99.90;;;;;;1689532;85;21623;-75
2021/04/29 03:39:11;;;;;;;12.13;8.08;;;12.60;99.90;;;;;;1689367;85;21161;-74
2021/04/29 03:41:38;;;;;;;15.65;9.50;;;12.60;99.90;;;;;;1689319;85;21206;-74
2021/04/29 03:44:06;;;;;;;18.77;9.53;;;12.70;99.90;;;;;;1689387;84;21750;-74
2021/04/29 03:46:33;;;;;;;11.70;8.18;;;12.70;99.90;;;;;;1689511;85;21173;-74
2021/04/29 03:49:01;;;;;;;13.28;8.20;;;12.70;99.90;;;;;;1689401;85;21308;-74
2021/04/29 03:51:29;;;;;;;13.40;8.28;;;12.80;99.90;;;;;;1689543;85;21308;-74
2021/04/29 03:53:59;;;;;;;12.23;8.43;;;12.70;99.90;;;;;;1689065;85;21305;-74
2021/04/29 03:56:27;;;;;;;12.65;8.25;;;12.80;99.90;;;;;;1689785;85;21177;-72
2021/04/29 03:58:54;;;;;;;11.15;7.78;;;12.80;99.90;;;;;;1689480;85;21734;-72
2021/04/29 04:01:22;;;;;;;13.68;8.48;;;12.80;99.90;;;;;;1689354;85;21178;-72
2021/04/29 04:03:51;;;;;;;15.60;9.60;;;12.90;99.90;;;;;;1689339;85;21809;-71
2021/04/29 04:06:21;;;;;;;14.58;9.18;;;12.90;99.90;;;;;;1689587;85;21288;-71
2021/04/29 04:08:52;;;;;;;14.65;8.65;;;13.00;99.90;;;;;;1689397;84;21179;-71
2021/04/29 04:11:19;;;;;;;12.73;8.20;;;13.10;99.90;;;;;;1689514;85;21751;-73
2021/04/29 04:13:49;;;;;;;15.05;8.93;;;13.10;99.90;;;;;;1689505;85;21352;-72
2021/04/29 04:16:17;;;;;;;13.72;8.88;;;13.10;99.90;;;;;;1689309;85;21166;-73
2021/04/29 04:18:44;;;;;;;16.32;9.23;;;13.20;99.90;;;;;;1689594;85;21377;-74
2021/04/29 04:21:14;;;;;;;16.80;9.15;;;13.20;99.90;;;;;;1689420;84;21202;-73
2021/04/29 04:23:42;;;;;;;16.20;9.00;;;13.30;99.90;;;;;;1689278;84;21182;-73
2021/04/29 04:26:09;;;;;;;17.40;9.23;;;13.40;99.90;;;;;;1689490;85;21303;-73
2021/04/29 04:28:37;;;;;;;14.85;9.75;;;13.50;99.90;;;;;;1689548;85;21320;-72
2021/04/29 04:31:05;;;;;;;15.80;10.53;;;13.60;99.90;;;;;;1689274;85;21628;-73
2021/04/29 04:33:32;;;;;;;17.20;10.30;;;13.60;99.90;;;;;;1689367;85;21199;-73
2021/04/29 04:36:01;;;;;;;19.92;10.72;;;13.70;99.90;;;;;;1689486;85;21195;-73
2021/04/29 04:38:29;;;;;;;16.55;10.15;;;13.70;99.10;;;;;;1689543;85;21313;-72
2021/04/29 04:40:57;;;;;;;17.10;10.63;;;13.80;98.70;;;;;;1689557;85;21327;-73
2021/04/29 04:43:25;;;;;;;18.32;10.72;;;13.90;97.60;;;;;;1689266;84;21180;-72
2021/04/29 04:45:53;;;;;;;17.10;11.08;;;13.90;97.40;;;;;;1689168;85;21134;-72
2021/04/29 04:48:21;;;;;;;18.02;11.65;;;13.90;97.60;;;;;;1689542;85;21324;-74
2021/04/29 04:50:49;;;;;;;20.30;11.60;;;13.90;97.30;;;;;;1689461;85;21715;-72
2021/04/29 04:53:17;;;;;;;19.15;10.18;;;13.80;99.00;;;;;;1689288;85;21176;-72
2021/04/29 04:55:47;;;;;;;16.40;11.10;;;13.70;98.00;;;;;;1689313;85;21138;-71
2021/04/29 04:58:16;;;;;;;17.87;10.63;;;13.80;97.10;;;;;;1689463;85;21311;-72
2021/04/29 05:00:48;;;;;;;16.70;10.18;;;13.80;97.00;;;;;;1689204;84;21572;-72
2021/04/29 05:03:16;;;;;;;17.82;11.43;;;13.90;97.00;;;;;;1689265;85;21173;-72
2021/04/29 05:05:45;;;;;;;15.88;10.55;;;13.90;96.80;;;;;;1689297;84;21644;-72
2021/04/29 05:08:14;;;;;;;19.32;10.50;;;14.00;96.60;;;;;;1689457;85;21356;-72
2021/04/29 05:10:42;;;;;;;16.87;10.78;;;14.00;95.80;;;;;;1689039;84;21165;-73
2021/04/29 05:13:10;;;;;;;15.75;10.38;;;14.10;95.40;;;;;;1689219;85;21185;-73
2021/04/29 05:15:37;;;;;;;17.32;10.40;;;14.10;94.30;;;;;;1689274;85;21181;-72
2021/04/29 05:18:05;;;;;;;17.02;10.38;;;14.10;94.50;;;;;;1689358;84;21166;-72
2021/04/29 05:20:38;;;;;;;20.20;11.68;;;14.10;95.40;;;;;;1689401;85;21292;-71
2021/04/29 05:23:03;;;;;;;17.67;10.65;;;14.10;96.00;;;;;;1686373;84;21183;-72
2021/04/29 05:25:31;;;;;;;26.27;11.68;;;14.20;96.10;;;;;;1686953;85;21181;-72
2021/04/29 05:28:05;;;;;;;16.40;10.82;;;14.20;95.20;;;;;;1686870;84;21733;-72
2021/04/29 05:30:33;;;;;;;17.42;9.70;;;14.30;96.00;;;;;;1686876;85;21580;-71
2021/04/29 05:33:01;;;;;;;18.75;10.28;;;14.30;94.70;;;;;;1686794;84;21209;-70
2021/04/29 05:35:28;;;;;;;17.73;9.70;;;14.40;94.70;;;;;;1686963;84;21172;-73
2021/04/29 05:37:56;;;;;;;14.95;8.58;;;14.30;94.60;;;;;;1659430;85;21193;-72
2021/04/29 05:40:24;;;;;;;14.53;8.88;;;14.50;94.10;;;;;;1654529;86;21186;-71
2021/04/29 05:42:51;;;;;;;18.82;10.05;;;14.60;93.30;;;;;;1689348;84;21171;-70
2021/04/29 05:45:19;;;;;;;17.48;9.45;;;14.60;92.90;;;;;;1695017;84;21171;-70
2021/04/29 05:47:46;;;;;;;16.97;10.18;;;14.70;92.80;;;;;;1687159;84;21181;-69
2021/04/29 05:50:14;;;;;;;16.60;9.63;;;14.70;92.30;;;;;;1685560;85;21122;-69
2021/04/29 05:52:42;;;;;;;17.12;10.68;;;14.80;92.90;;;;;;1685654;85;21149;-70
2021/04/29 05:55:11;;;;;;;18.17;12.00;;;14.90;93.10;;;;;;1686722;85;21567;-70
2021/04/29 05:57:39;;;;;;;19.07;11.05;;;14.90;92.90;;;;;;1684652;85;21161;-70
2021/04/29 06:00:08;;;;;;;16.50;10.78;;;14.90;92.40;;;;;;1687408;84;21170;-69
2021/04/29 06:02:38;;;;;;;16.17;10.25;;;15.00;92.20;;;;;;1686068;85;21122;-69
2021/04/29 06:05:07;;;;;;;18.07;10.65;;;15.10;91.50;;;;;;1651531;86;21161;-68
2021/04/29 06:07:35;;;;;;;16.80;10.25;;;15.10;90.70;;;;;;1684584;85;21350;-69
2021/04/29 06:10:04;;;;;;;17.92;10.78;;;15.10;90.20;;;;;;1681687;84;21196;-70
2021/04/29 06:12:32;;;;;;;18.23;10.75;;;15.20;90.80;;;;;;1683368;85;21187;-69
2021/04/29 06:15:00;;;;;;;19.60;11.38;;;15.20;90.40;;;;;;1648828;86;21181;-69
2021/04/29 06:17:27;;;;;;;18.87;10.55;;;15.40;90.70;;;;;;1684908;85;21154;-70
2021/04/29 06:19:55;;;;;;;17.75;10.43;;;15.40;90.40;;;;;;1685791;85;21627;-69
2021/04/29 06:22:23;;;;;;;22.48;12.10;;;15.60;89.90;;;;;;1691758;84;21141;-71
2021/04/29 06:24:50;;;;;;;22.10;12.13;;;15.60;88.50;;;;;;1649412;86;21173;-69
2021/04/29 06:27:18;;;;;;;16.12;11.12;;;15.70;88.00;;;;;;1699251;84;21165;-69
2021/04/29 06:29:46;;;;;;;19.73;10.30;;;15.70;87.80;;;;;;1697171;84;21615;-69
2021/04/29 06:32:14;;;;;;;17.17;10.50;;;15.80;87.30;;;;;;1697519;84;21575;-69
2021/04/29 06:34:52;;;;;;;25.25;11.22;;;15.80;86.40;;;;;;1692594;84;21552;-71
2021/04/29 06:37:20;;;;;;;17.30;9.63;;;15.90;86.20;;;;;;1690275;84;21583;-70
2021/04/29 06:39:48;;;;;;;14.05;8.65;;;16.00;85.80;;;;;;1671547;84;21184;-69
2021/04/29 06:42:16;;;;;;;14.93;8.68;;;16.00;83.90;;;;;;1698683;84;21208;-70
2021/04/29 06:44:43;;;;;;;12.93;8.75;;;16.10;82.20;;;;;;1697728;84;21110;-71
2021/04/29 06:47:12;;;;;;;14.70;8.68;;;16.10;81.40;;;;;;1665956;84;21161;-69
2021/04/29 06:49:40;;;;;;;18.07;9.30;;;16.10;81.60;;;;;;1698175;84;21157;-69
2021/04/29 06:52:07;;;;;;;15.30;8.48;;;16.20;82.10;;;;;;1697143;84;21173;-69
2021/04/29 06:54:35;;;;;;;14.87;9.20;;;16.30;82.70;;;;;;1666639;84;21443;-70
2021/04/29 06:57:03;;;;;;;20.37;10.88;;;16.40;81.20;;;;;;1671288;84;21149;-69
2021/04/29 06:59:31;;;;;;;14.95;9.20;;;16.40;79.90;;;;;;1704329;84;21153;-69
2021/04/29 07:02:00;;;;;;;17.80;9.13;;;16.50;80.90;;;;;;1666128;86;21169;-70
2021/04/29 07:04:30;;;;;;;16.48;10.00;;;16.60;82.20;;;;;;1692045;84;21576;-72
2021/04/29 07:06:57;;;;;;;16.40;10.25;;;16.80;79.10;;;;;;1699347;84;21174;-70
2021/04/29 07:09:26;;;;;;;21.30;10.15;;;16.80;77.50;;;;;;1698040;84;21137;-71
2021/04/29 07:11:55;;;;;;;16.20;9.98;;;16.90;78.30;;;;;;1693471;84;21153;-71
2021/04/29 07:14:23;;;;;;;18.12;9.83;;;17.00;77.50;;;;;;1693501;84;21119;-70
2021/04/29 07:16:50;;;;;;;24.07;12.37;;;17.10;78.90;;;;;;1672263;84;21606;-71
2021/04/29 07:19:18;;;;;;;27.80;15.15;;;17.20;75.70;;;;;;1697276;84;21153;-79
2021/04/29 07:21:47;;;;;;;25.27;15.13;;;17.30;74.70;;;;;;1679983;84;21225;-74
2021/04/29 07:24:14;;;;;;;30.45;14.45;;;17.40;74.50;;;;;;1687643;84;21154;-71
2021/04/29 07:26:42;;;;;;;25.65;13.85;;;17.50;74.50;;;;;;1687772;85;21604;-70
2021/04/29 07:29:09;;;;;;;23.87;14.50;;;17.50;72.80;;;;;;1681922;85;21803;-69
2021/04/29 07:31:37;;;;;;;31.07;15.03;;;17.60;73.10;;;;;;1686368;84;21149;-71
2021/04/29 07:34:07;;;;;;;26.97;15.43;;;17.60;72.80;;;;;;1676692;85;21132;-70
2021/04/29 07:36:36;;;;;;;25.02;13.75;;;17.70;71.80;;;;;;1685131;85;21153;-73
2021/04/29 07:39:05;;;;;;;19.82;13.38;;;17.60;72.00;;;;;;1681373;85;21594;-73
2021/04/29 07:41:32;;;;;;;22.73;12.73;;;17.70;71.90;;;;;;1666245;84;21185;-73
2021/04/29 07:44:01;;;;;;;22.87;12.98;;;17.70;71.60;;;;;;1650862;86;21126;-72
2021/04/29 07:46:31;;;;;;;25.97;13.40;;;17.80;71.30;;;;;;1675597;85;21115;-73
2021/04/29 07:48:59;;;;;;;20.77;13.83;;;17.80;70.50;;;;;;1685876;85;21153;-74
2021/04/29 07:51:27;;;;;;;25.23;13.10;;;17.80;70.50;;;;;;1690154;85;21174;-72
2021/04/29 07:53:55;;;;;;;23.52;13.78;;;17.80;70.30;;;;;;1699656;84;21169;-73
2021/04/29 07:56:22;;;;;;;19.70;11.95;;;17.90;70.40;;;;;;1689865;85;21166;-74
2021/04/29 07:58:50;;;;;;;20.00;12.15;;;18.00;70.00;;;;;;1699420;84;21584;-73
2021/04/29 08:01:17;;;;;;;23.50;12.10;;;18.20;69.50;;;;;;1699861;84;21169;-72
2021/04/29 08:03:45;;;;;;;20.32;12.30;;;18.20;68.90;;;;;;1699973;84;21188;-74
2021/04/29 08:06:13;;;;;;;20.37;11.73;;;18.20;67.30;;;;;;1699694;84;21303;-73
2021/04/29 08:08:40;;;;;;;21.68;12.45;;;18.30;68.20;;;;;;1700338;84;21188;-72
2021/04/29 08:11:08;;;;;;;19.57;10.53;;;18.30;67.10;;;;;;1700162;84;21142;-81
2021/04/29 08:13:37;;;;;;;16.62;10.63;;;18.40;67.30;;;;;;1699877;84;21181;-74
2021/04/29 08:16:05;;;;;;;17.98;11.22;;;18.40;66.60;;;;;;1700117;84;21188;-74
2021/04/29 08:18:33;;;;;;;16.30;10.53;;;18.50;65.30;;;;;;1681006;84;21608;-77
2021/04/29 08:21:00;;;;;;;15.10;10.15;;;18.60;66.20;;;;;;1689349;84;21154;-77
2021/04/29 08:23:28;;;;;;;13.30;9.48;;;18.70;66.00;;;;;;1685973;84;21197;-76
2021/04/29 08:25:55;;;;;;;13.78;9.83;;;19.20;64.80;;;;;;1648882;86;21616;-76
2021/04/29 08:28:23;;;;;;;13.75;9.68;;;19.70;63.10;;;;;;1683639;85;21582;-77
2021/04/29 08:30:51;;;;;;;21.02;9.85;;;20.00;61.10;;;;;;1687573;85;21166;-76
2021/04/29 08:33:19;;;;;;;13.60;9.30;;;20.50;59.40;;;;;;1686794;85;21621;-73
2021/04/29 08:35:47;;;;;;;21.62;11.38;;;20.90;58.80;;;;;;1682281;84;21115;-73
2021/04/29 08:38:16;;;;;;;20.70;11.03;;;21.20;58.40;;;;;;1683934;85;21162;-74
2021/04/29 08:40:44;;;;;;;15.23;9.13;;;21.40;56.40;;;;;;1649713;86;21186;-75
2021/04/29 08:43:12;;;;;;;14.98;9.60;;;21.60;55.80;;;;;;1684308;85;21159;-75
2021/04/29 08:45:44;;;;;;;14.53;9.18;;;21.60;55.50;;;;;;1682187;85;21575;-73
2021/04/29 08:48:11;;;;;;;22.00;11.45;;;21.80;55.20;;;;;;1691931;85;21156;-75
2021/04/29 08:50:39;;;;;;;22.15;11.40;;;21.70;54.00;;;;;;1700073;84;21568;-74
2021/04/29 08:53:07;;;;;;;18.45;9.65;;;21.30;55.10;;;;;;1700527;84;21177;-71
2021/04/29 08:55:36;;;;;;;20.08;10.78;;;21.20;56.00;;;;;;1700573;84;21185;-72
2021/04/29 08:58:06;;;;;;;20.02;10.45;;;21.20;56.50;;;;;;1700398;84;21134;-71
2021/04/29 09:00:34;;;;;;;15.70;9.48;;;21.40;56.20;;;;;;1700520;84;21157;-72
2021/04/29 09:03:02;;;;;;;15.65;9.35;;;21.40;55.90;;;;;;1700317;84;21205;-72
2021/04/29 09:05:34;;;;;;;16.48;9.70;;;21.50;55.40;;;;;;1700505;84;21603;-70
2021/04/29 09:08:08;;;;;;;16.80;10.03;;;21.40;55.20;;;;;;1700679;84;21158;-69
2021/04/29 09:10:42;;;;;;;18.20;10.68;;;21.40;55.90;;;;;;1690014;84;21147;-70
2021/04/29 09:13:19;;;;;;;14.07;8.38;;;21.50;56.90;;;;;;1648450;87;21162;-70
2021/04/29 09:15:50;;;;;;;17.32;8.33;;;21.50;55.40;;;;;;1681057;85;21149;-69
2021/04/29 09:18:21;;;;;;;16.70;8.13;;;21.50;55.40;;;;;;1648516;86;21155;-68
2021/04/29 09:21:07;;;;;;;12.63;8.05;;;21.40;55.20;;;;;;1682226;84;21145;-72
2021/04/29 09:23:41;;;;;;;14.55;8.23;;;21.20;55.70;;;;;;1678709;85;21674;-72
2021/04/29 09:26:12;;;;;;;12.88;8.00;;;21.30;56.10;;;;;;1671473;85;21137;-71
2021/04/29 09:28:50;;;;;;;11.35;6.72;;;21.30;56.60;;;;;;1687259;84;21576;-73
2021/04/29 09:31:26;;;;;;;15.93;7.67;;;21.40;56.00;;;;;;1686239;85;21146;-73
2021/04/29 09:33:58;;;;;;;16.00;8.53;;;21.30;54.30;;;;;;1687392;85;21118;-73
2021/04/29 09:36:41;;;;;;;15.28;8.85;;;21.40;55.00;;;;;;1682793;84;21166;-72
2021/04/29 09:39:18;;;;;;;13.68;8.83;;;21.20;55.00;;;;;;1679894;85;21146;-73
2021/04/29 09:41:50;;;;;;;16.12;9.60;;;21.20;55.70;;;;;;1675166;84;21655;-74
2021/04/29 09:44:22;;;;;;;15.65;9.30;;;21.00;55.60;;;;;;1662311;86;21177;-72
2021/04/29 09:47:01;;;;;;;15.75;9.68;;;20.80;58.00;;;;;;1662744;86;21121;-72
2021/04/29 09:49:41;;;;;;;15.15;9.55;;;20.70;57.30;;;;;;1680077;84;21584;-69
2021/04/29 09:52:21;;;;;;;15.28;9.75;;;20.50;58.20;;;;;;1674561;85;21146;-70
2021/04/29 09:54:49;;;;;;;16.87;9.45;;;20.40;59.20;;;;;;1685470;85;21169;-69
2021/04/29 09:57:27;;;;;;;14.40;8.53;;;20.50;59.10;;;;;;1681583;85;21122;-69
2021/04/29 09:59:59;;;;;;;16.32;9.18;;;20.60;59.10;;;;;;1690234;84;21126;-71
2021/04/29 10:02:30;;;;;;;17.48;7.90;;;20.80;58.10;;;;;;1658267;85;21197;-69
2021/04/29 10:04:58;;;;;;;13.05;9.15;;;21.00;58.60;;;;;;1692484;83;21580;-68
2021/04/29 10:07:25;;;;;;;14.20;9.15;;;21.10;57.70;;;;;;1687634;83;21487;-67
2021/04/29 10:09:54;;;;;;;15.20;9.23;;;21.20;57.20;;;;;;1688626;85;21150;-67
2021/04/29 10:12:25;;;;;;;15.15;9.38;;;21.30;56.90;;;;;;1694919;83;21272;-68
2021/04/29 10:14:53;;;;;;;18.02;10.50;;;21.20;57.30;;;;;;1689400;84;21726;-72
2021/04/29 10:17:22;;;;;;;20.23;9.50;;;21.10;57.10;;;;;;1678878;85;21171;-69
2021/04/29 10:19:54;;;;;;;26.95;12.20;;;21.00;57.90;;;;;;1679117;85;21145;-70
2021/04/29 10:22:27;;;;;;;17.02;9.28;;;20.80;58.00;;;;;;1677656;85;22729;-70
2021/04/29 10:24:55;;;;;;;15.13;9.58;;;20.70;58.60;;;;;;1695956;84;21571;-71
2021/04/29 10:27:27;;;;;;;16.90;8.70;;;20.70;59.10;;;;;;1693681;84;21185;-70
2021/04/29 10:30:07;;;;;;;13.53;8.15;;;20.60;58.40;;;;;;1695923;84;21145;-71
2021/04/29 10:32:38;;;;;;;17.52;8.33;;;20.60;59.40;;;;;;1693395;84;21556;-72
2021/04/29 10:35:22;;;;;;;10.48;7.92;;;20.60;59.70;;;;;;1694622;84;21149;-72
2021/04/29 10:38:03;;;;;;;12.80;7.60;;;20.60;59.40;;;;;;1691434;84;21141;-73
2021/04/29 10:40:38;;;;;;;14.28;8.50;;;20.50;60.40;;;;;;1692125;84;21128;-72
2021/04/29 10:43:10;;;;;;;13.75;8.73;;;20.50;61.50;;;;;;1694980;84;21585;-72
2021/04/29 10:45:37;;;;;;;13.30;9.28;;;20.50;60.70;;;;;;1697519;84;21177;-72
2021/04/29 10:48:11;;;;;;;14.03;8.60;;;20.40;60.60;;;;;;1699680;84;21161;-72
2021/04/29 10:50:47;;;;;;;14.78;8.15;;;20.40;60.20;;;;;;1699690;84;21145;-71
2021/04/29 10:53:28;;;;;;;17.82;9.13;;;20.30;60.50;;;;;;1699791;84;21161;-70
2021/04/29 10:56:16;;;;;;;16.10;8.20;;;20.20;61.00;;;;;;1699465;84;21177;-70
2021/04/29 10:58:45;;;;;;;12.70;8.18;;;20.30;60.70;;;;;;1699634;84;21708;-67
2021/04/29 11:01:18;;;;;;;13.50;7.78;;;20.30;60.90;;;;;;1700077;84;21587;-67
2021/04/29 11:03:50;;;;;;;14.78;8.03;;;20.30;61.40;;;;;;1697605;83;21181;-74
2021/04/29 11:06:34;;;;;;;12.47;8.30;;;20.30;60.50;;;;;;1698732;84;21279;-68
2021/04/29 11:09:05;;;;;;;10.32;7.42;;;20.20;60.30;;;;;;1698534;83;21206;-67
2021/04/29 11:11:36;;;;;;;13.08;7.83;;;20.10;60.70;;;;;;1693900;84;21140;-68
2021/04/29 11:14:13;;;;;;;22.25;8.18;;;20.00;61.50;;;;;;1693049;83;21201;-64
2021/04/29 11:16:54;;;;;;;18.50;9.20;;;20.10;61.40;;;;;;1696350;84;21579;-65
2021/04/29 11:19:58;;;;;;;14.28;8.80;;;20.10;61.60;;;;;;1689208;85;21146;-66
2021/04/29 11:22:34;;;;;;;14.10;7.58;;;20.10;61.30;;;;;;1688557;84;21176;-66
2021/04/29 11:25:26;;;;;;;13.53;7.92;;;20.00;62.00;;;;;;1698311;84;21177;-66
2021/04/29 11:27:55;;;;;;;16.30;7.75;;;20.00;62.50;;;;;;1668260;84;21161;-66
2021/04/29 11:30:23;;;;;;;13.13;8.43;;;20.10;62.70;;;;;;1690543;84;21298;-66
2021/04/29 11:32:58;;;;;;;12.28;7.10;;;20.10;61.80;;;;;;1704425;84;21587;-67
2021/04/29 11:35:33;;;;;;;10.72;7.00;;;20.10;61.50;;;;;;1707228;84;21189;-68
2021/04/29 11:38:05;;;;;;;11.08;6.80;;;20.20;61.90;;;;;;1707036;84;21156;-68
2021/04/29 11:40:35;;;;;;;11.22;7.40;;;20.20;61.70;;;;;;1707519;84;21181;-68
2021/04/29 11:43:05;;;;;;;11.15;7.50;;;20.10;61.40;;;;;;1700263;83;21607;-67
2021/04/29 11:45:41;;;;;;;12.18;6.85;;;20.10;61.10;;;;;;1726618;83;21278;-67
2021/04/29 11:48:14;;;;;;;12.85;6.85;;;20.00;60.80;;;;;;1725969;83;21176;-67
2021/04/29 11:50:53;;;;;;;13.30;6.42;;;20.00;60.90;;;;;;1704028;83;21148;-67
2021/04/29 11:53:30;;;;;;;14.58;6.35;;;20.00;61.80;;;;;;1702672;83;21145;-66
2021/04/29 11:56:04;;;;;;;10.72;6.85;;;20.00;62.10;;;;;;1696168;84;21133;-67
2021/04/29 11:58:33;;;;;;;12.63;7.08;;;20.00;62.10;;;;;;1695573;84;21144;-67
2021/04/29 12:01:01;;;;;;;12.58;7.05;;;20.00;61.80;;;;;;1698506;84;21173;-68
2021/04/29 12:03:29;;;;;;;11.97;6.45;;;20.00;61.40;;;;;;1697768;84;21192;-67
2021/04/29 12:06:02;;;;;;;12.30;6.15;;;19.90;61.40;;;;;;1679281;85;21185;-67
2021/04/29 12:08:34;;;;;;;12.30;6.47;;;19.90;61.80;;;;;;1679205;85;21188;-67
2021/04/29 12:11:09;;;;;;;11.12;6.60;;;19.80;61.20;;;;;;1679251;85;21176;-68
2021/04/29 12:13:45;;;;;;;11.93;5.97;;;19.70;61.60;;;;;;1679623;84;21322;-67
2021/04/29 12:16:21;;;;;;;8.48;5.83;;;19.70;62.50;;;;;;1680853;83;21173;-67
2021/04/29 12:18:56;;;;;;;8.68;5.30;;;19.60;62.40;;;;;;1683341;84;21602;-67
2021/04/29 12:21:33;;;;;;;13.75;5.70;;;19.60;62.10;;;;;;1679196;85;21135;-67
2021/04/29 12:24:06;;;;;;;9.28;5.03;;;19.60;62.50;;;;;;1679288;85;21171;-67
2021/04/29 12:26:38;;;;;;;7.97;5.05;;;19.60;62.40;;;;;;1694099;83;21157;-66
2021/04/29 12:29:11;;;;;;;9.80;5.00;;;19.60;62.50;;;;;;1692905;83;21575;-66
2021/04/29 12:31:51;;;;;;;14.07;5.37;;;19.50;62.30;;;;;;1698070;83;21635;-67
2021/04/29 12:34:24;;;;;;;10.63;5.50;;;19.60;62.90;;;;;;1694751;84;21618;-67
2021/04/29 12:37:02;;;;;;;9.80;5.00;;;19.60;61.90;;;;;;1695161;85;21384;-67
2021/04/29 12:39:35;;;;;;;9.43;5.03;;;19.60;62.10;;;;;;1694953;85;21161;-67
2021/04/29 12:42:07;;;;;;;8.43;5.20;;;19.70;62.20;;;;;;1694459;84;21164;-67
2021/04/29 12:44:47;;;;;;;11.53;5.50;;;19.70;62.00;;;;;;1696981;84;21173;-67
2021/04/29 12:47:31;;;;;;;11.22;5.12;;;19.70;61.30;;;;;;1699261;84;21129;-67
2021/04/29 12:50:11;;;;;;;10.40;5.12;;;19.70;61.10;;;;;;1698874;84;21161;-71